Dickinson, Alabama
Current Conditions -  °F | °C
As of 3:29 PM on Saturday 20 Dec 2014 (Local Time) from KGZH Reporting Station
Overcast Overcast  
Wind Chill: 52°   Ceiling: 700
Heat Index: 52°   Visibility: 10mi
Dew Point: 48°   Wind: 8mph
Humidity: 86%   Direction: 30°NNE
Pressure: 30.13"   Gusts: NA
Location:  31.77°N, 87.71°W
Report Text: KGZH 202129Z AUTO 03007KT 10SM OVC007 11/09 A3013 RMK AO2 T01110089
Loading
Personal Weather Stations






























Interactive Weather Map New forecast layout! Learn more

10-Day Weather Forecast

Advertisements
Track Severe Weather on mobile